createdAt,value
2022-11-15T00:57:27.510Z,57.60
2022-11-15T01:07:56.443Z,52.30
2022-11-15T01:18:30.250Z,50.50
2022-11-15T01:29:04.334Z,49.80
2022-11-15T01:39:33.282Z,50.60
2022-11-15T01:50:07.447Z,50.00
2022-11-15T02:00:42.107Z,49.80
2022-11-15T02:11:28.535Z,49.50
2022-11-15T03:00:14.132Z,48.50
2022-11-15T03:32:20.041Z,51.20
2022-11-15T05:36:38.868Z,48.40
2022-11-15T07:24:56.054Z,53.80
2022-11-15T08:50:09.926Z,49.20
2022-11-15T09:25:25.088Z,46.70
2022-11-15T09:47:42.377Z,45.60
2022-11-15T10:11:38.944Z,44.70
2022-11-15T10:22:30.046Z,44.80
2022-11-15T10:32:42.084Z,44.40
2022-11-15T10:42:49.028Z,44.20
2022-11-15T10:52:57.748Z,43.90
2022-11-15T11:03:07.771Z,43.60
2022-11-15T11:13:28.284Z,43.50
2022-11-15T11:23:48.877Z,43.60
2022-11-15T11:34:06.492Z,43.40
2022-11-15T11:44:31.033Z,43.20
2022-11-15T11:54:46.657Z,43.00
2022-11-15T12:04:57.182Z,42.90
2022-11-15T12:15:14.619Z,42.70
2022-11-15T12:25:27.371Z,42.60
2022-11-15T12:35:40.599Z,42.30
2022-11-15T12:45:48.726Z,42.20
2022-11-15T12:56:24.174Z,42.20
2022-11-15T13:06:44.333Z,42.10
2022-11-15T13:17:00.808Z,42.00
2022-11-15T13:27:19.638Z,42.00
2022-11-15T13:37:35.585Z,41.80
2022-11-15T13:47:42.510Z,41.90
2022-11-15T13:57:53.781Z,41.60
2022-11-15T14:08:04.856Z,41.50
2022-11-15T14:18:40.880Z,41.60
2022-11-15T14:28:50.256Z,41.50
2022-11-15T14:38:57.642Z,41.40
2022-11-15T14:49:06.317Z,41.40
2022-11-15T14:59:13.335Z,41.00
2022-11-15T15:09:22.700Z,40.90
2022-11-15T15:19:30.165Z,40.90
2022-11-15T15:29:38.861Z,41.30
2022-11-15T15:39:45.896Z,41.50
2022-11-15T15:49:54.960Z,41.50
2022-11-15T16:00:02.068Z,40.70
2022-11-15T16:10:24.250Z,43.80
2022-11-15T16:20:37.664Z,43.60
2022-11-15T16:30:48.188Z,45.20
2022-11-15T16:40:56.942Z,45.70
2022-11-15T16:51:06.705Z,45.30
2022-11-15T17:01:21.769Z,46.50
2022-11-15T17:11:30.382Z,45.70
2022-11-15T17:21:37.923Z,46.30
2022-11-15T17:31:46.675Z,45.60
2022-11-15T17:41:53.884Z,46.60
2022-11-15T17:52:02.466Z,46.20
2022-11-15T18:02:13.219Z,46.60
2022-11-15T18:12:22.043Z,49.80
2022-11-15T18:22:31.794Z,49.80
2022-11-15T18:32:40.401Z,49.50
2022-11-15T18:42:47.513Z,49.70
2022-11-15T18:52:56.078Z,50.70
2022-11-15T19:03:03.210Z,49.20
2022-11-15T19:13:11.909Z,49.30
2022-11-15T19:23:19.444Z,49.80
2022-11-15T19:33:28.070Z,48.80
2022-11-15T19:43:35.564Z,47.20
2022-11-15T19:53:44.387Z,45.60
2022-11-15T20:03:52.171Z,45.30
2022-11-15T20:14:03.611Z,44.90
2022-11-15T20:24:11.833Z,44.70
2022-11-15T20:34:21.163Z,46.90
2022-11-15T20:44:28.284Z,48.60
2022-11-15T20:54:37.034Z,48.90
2022-11-15T21:04:44.081Z,49.00
2022-11-15T21:14:53.927Z,49.90
2022-11-15T21:25:01.474Z,50.70
2022-11-15T21:35:10.755Z,51.40
2022-11-15T21:45:17.872Z,51.20
2022-11-15T21:55:26.646Z,49.90
2022-11-15T22:05:33.773Z,48.90
2022-11-15T22:15:42.589Z,48.30
2022-11-15T22:25:50.233Z,48.20
2022-11-15T22:35:58.940Z,47.60
2022-11-15T22:46:07.438Z,46.90
2022-11-15T22:56:20.159Z,46.30
2022-11-15T23:06:27.651Z,46.20
2022-11-15T23:16:39.206Z,46.00
2022-11-15T23:26:47.801Z,46.00
2022-11-15T23:36:56.553Z,46.60
2022-11-15T23:47:03.766Z,47.00
2022-11-15T23:57:13.106Z,47.30
